sensor_id;sensor_type;location;lat;lon;timestamp;P1;durP1;ratioP1;P2;durP2;ratioP2
37241;SDS011;23135;51.078;12.108;2023-04-06T00:01:36;8.68;;;4.80;;
37241;SDS011;23135;51.078;12.108;2023-04-06T00:04:02;11.27;;;5.00;;
37241;SDS011;23135;51.078;12.108;2023-04-06T00:06:27;7.40;;;4.90;;
37241;SDS011;23135;51.078;12.108;2023-04-06T00:08:53;9.75;;;5.00;;
37241;SDS011;23135;51.078;12.108;2023-04-06T00:11:19;7.35;;;4.75;;
37241;SDS011;23135;51.078;12.108;2023-04-06T00:13:44;12.23;;;5.00;;
37241;SDS011;23135;51.078;12.108;2023-04-06T00:16:10;9.18;;;4.05;;
37241;SDS011;23135;51.078;12.108;2023-04-06T00:18:36;12.57;;;4.80;;
37241;SDS011;23135;51.078;12.108;2023-04-06T00:21:01;6.80;;;4.75;;
37241;SDS011;23135;51.078;12.108;2023-04-06T00:23:27;14.27;;;5.40;;
37241;SDS011;23135;51.078;12.108;2023-04-06T00:25:53;5.97;;;4.18;;
37241;SDS011;23135;51.078;12.108;2023-04-06T00:28:18;9.68;;;4.28;;
37241;SDS011;23135;51.078;12.108;2023-04-06T00:30:50;6.85;;;4.55;;
37241;SDS011;23135;51.078;12.108;2023-04-06T00:33:17;29.42;;;6.38;;
37241;SDS011;23135;51.078;12.108;2023-04-06T00:35:43;11.65;;;4.68;;
37241;SDS011;23135;51.078;12.108;2023-04-06T00:38:09;7.32;;;4.70;;
37241;SDS011;23135;51.078;12.108;2023-04-06T00:40:35;6.10;;;4.25;;
37241;SDS011;23135;51.078;12.108;2023-04-06T00:43:00;14.68;;;6.57;;
37241;SDS011;23135;51.078;12.108;2023-04-06T00:45:26;9.32;;;4.93;;
37241;SDS011;23135;51.078;12.108;2023-04-06T00:47:52;5.70;;;4.90;;
37241;SDS011;23135;51.078;12.108;2023-04-06T00:50:17;8.52;;;5.47;;
37241;SDS011;23135;51.078;12.108;2023-04-06T00:52:43;9.15;;;5.00;;
37241;SDS011;23135;51.078;12.108;2023-04-06T00:55:09;5.30;;;4.00;;
37241;SDS011;23135;51.078;12.108;2023-04-06T00:57:35;7.82;;;5.22;;
37241;SDS011;23135;51.078;12.108;2023-04-06T01:00:00;7.22;;;5.13;;
37241;SDS011;23135;51.078;12.108;2023-04-06T01:02:27;9.93;;;5.32;;
37241;SDS011;23135;51.078;12.108;2023-04-06T01:04:52;10.50;;;5.45;;
37241;SDS011;23135;51.078;12.108;2023-04-06T01:07:19;9.00;;;6.18;;
37241;SDS011;23135;51.078;12.108;2023-04-06T01:09:44;6.63;;;5.07;;
37241;SDS011;23135;51.078;12.108;2023-04-06T01:12:10;10.25;;;5.63;;
37241;SDS011;23135;51.078;12.108;2023-04-06T01:14:35;9.10;;;5.22;;
37241;SDS011;23135;51.078;12.108;2023-04-06T01:17:01;8.70;;;5.82;;
37241;SDS011;23135;51.078;12.108;2023-04-06T01:19:27;10.02;;;5.55;;
37241;SDS011;23135;51.078;12.108;2023-04-06T01:21:53;8.98;;;5.72;;
37241;SDS011;23135;51.078;12.108;2023-04-06T01:24:20;10.60;;;7.93;;
37241;SDS011;23135;51.078;12.108;2023-04-06T01:26:45;8.88;;;6.32;;
37241;SDS011;23135;51.078;12.108;2023-04-06T01:29:11;13.43;;;6.93;;
37241;SDS011;23135;51.078;12.108;2023-04-06T01:31:37;8.60;;;5.53;;
37241;SDS011;23135;51.078;12.108;2023-04-06T01:34:03;12.05;;;5.80;;
37241;SDS011;23135;51.078;12.108;2023-04-06T01:36:29;7.60;;;5.53;;
37241;SDS011;23135;51.078;12.108;2023-04-06T01:38:55;13.20;;;5.82;;
37241;SDS011;23135;51.078;12.108;2023-04-06T01:41:21;11.82;;;6.35;;
37241;SDS011;23135;51.078;12.108;2023-04-06T01:43:47;9.15;;;6.47;;
37241;SDS011;23135;51.078;12.108;2023-04-06T01:46:14;10.13;;;6.10;;
37241;SDS011;23135;51.078;12.108;2023-04-06T01:48:39;11.43;;;7.85;;
37241;SDS011;23135;51.078;12.108;2023-04-06T01:51:05;10.00;;;6.10;;
37241;SDS011;23135;51.078;12.108;2023-04-06T01:53:30;11.15;;;6.28;;
37241;SDS011;23135;51.078;12.108;2023-04-06T01:55:56;9.73;;;6.80;;
37241;SDS011;23135;51.078;12.108;2023-04-06T01:58:22;12.55;;;7.75;;
37241;SDS011;23135;51.078;12.108;2023-04-06T02:00:47;13.52;;;7.35;;
37241;SDS011;23135;51.078;12.108;2023-04-06T02:03:13;10.85;;;6.63;;
37241;SDS011;23135;51.078;12.108;2023-04-06T02:05:39;16.52;;;6.57;;
37241;SDS011;23135;51.078;12.108;2023-04-06T02:08:05;14.80;;;6.85;;
37241;SDS011;23135;51.078;12.108;2023-04-06T02:10:31;9.68;;;6.50;;
37241;SDS011;23135;51.078;12.108;2023-04-06T02:12:58;11.98;;;6.97;;
37241;SDS011;23135;51.078;12.108;2023-04-06T02:15:23;11.23;;;6.47;;
37241;SDS011;23135;51.078;12.108;2023-04-06T02:17:50;10.82;;;7.22;;
37241;SDS011;23135;51.078;12.108;2023-04-06T02:20:16;13.20;;;7.60;;
37241;SDS011;23135;51.078;12.108;2023-04-06T02:22:42;11.70;;;7.05;;
37241;SDS011;23135;51.078;12.108;2023-04-06T02:25:08;12.45;;;6.97;;
37241;SDS011;23135;51.078;12.108;2023-04-06T02:27:33;11.65;;;7.78;;
37241;SDS011;23135;51.078;12.108;2023-04-06T02:30:00;10.15;;;6.63;;
37241;SDS011;23135;51.078;12.108;2023-04-06T02:32:25;12.88;;;7.75;;
37241;SDS011;23135;51.078;12.108;2023-04-06T02:34:51;12.52;;;6.97;;
37241;SDS011;23135;51.078;12.108;2023-04-06T02:37:17;11.98;;;7.82;;
37241;SDS011;23135;51.078;12.108;2023-04-06T02:39:42;11.00;;;7.50;;
37241;SDS011;23135;51.078;12.108;2023-04-06T02:42:08;12.75;;;6.88;;
37241;SDS011;23135;51.078;12.108;2023-04-06T02:44:33;18.60;;;7.82;;
37241;SDS011;23135;51.078;12.108;2023-04-06T02:46:59;14.93;;;7.07;;
37241;SDS011;23135;51.078;12.108;2023-04-06T02:49:25;12.50;;;6.35;;
37241;SDS011;23135;51.078;12.108;2023-04-06T02:51:50;11.73;;;5.15;;
37241;SDS011;23135;51.078;12.108;2023-04-06T02:54:16;11.32;;;5.40;;
37241;SDS011;23135;51.078;12.108;2023-04-06T02:56:41;11.60;;;5.15;;
37241;SDS011;23135;51.078;12.108;2023-04-06T02:59:08;7.85;;;4.80;;
37241;SDS011;23135;51.078;12.108;2023-04-06T03:01:33;13.60;;;4.95;;
37241;SDS011;23135;51.078;12.108;2023-04-06T03:03:59;9.40;;;4.90;;
37241;SDS011;23135;51.078;12.108;2023-04-06T03:06:25;7.72;;;4.25;;
37241;SDS011;23135;51.078;12.108;2023-04-06T03:08:51;12.13;;;5.75;;
37241;SDS011;23135;51.078;12.108;2023-04-06T03:11:16;9.20;;;5.13;;
37241;SDS011;23135;51.078;12.108;2023-04-06T03:13:42;9.43;;;4.78;;
37241;SDS011;23135;51.078;12.108;2023-04-06T03:16:07;14.48;;;5.60;;
37241;SDS011;23135;51.078;12.108;2023-04-06T03:18:33;8.63;;;5.10;;
37241;SDS011;23135;51.078;12.108;2023-04-06T03:20:58;7.18;;;5.00;;
37241;SDS011;23135;51.078;12.108;2023-04-06T03:23:25;8.57;;;5.15;;
37241;SDS011;23135;51.078;12.108;2023-04-06T03:25:51;10.32;;;6.72;;
37241;SDS011;23135;51.078;12.108;2023-04-06T03:28:16;7.72;;;5.10;;
37241;SDS011;23135;51.078;12.108;2023-04-06T03:30:42;10.75;;;5.28;;
37241;SDS011;23135;51.078;12.108;2023-04-06T03:33:07;10.40;;;5.72;;
37241;SDS011;23135;51.078;12.108;2023-04-06T03:35:33;9.77;;;5.57;;
37241;SDS011;23135;51.078;12.108;2023-04-06T03:37:59;11.65;;;5.82;;
37241;SDS011;23135;51.078;12.108;2023-04-06T03:40:24;13.73;;;5.60;;
37241;SDS011;23135;51.078;12.108;2023-04-06T03:42:50;13.35;;;5.32;;
37241;SDS011;23135;51.078;12.108;2023-04-06T03:45:15;8.50;;;5.40;;
37241;SDS011;23135;51.078;12.108;2023-04-06T03:47:41;10.48;;;5.90;;
37241;SDS011;23135;51.078;12.108;2023-04-06T03:50:07;14.82;;;6.32;;
37241;SDS011;23135;51.078;12.108;2023-04-06T03:52:34;16.98;;;6.97;;
37241;SDS011;23135;51.078;12.108;2023-04-06T03:55:01;11.57;;;6.47;;
37241;SDS011;23135;51.078;12.108;2023-04-06T03:57:26;8.00;;;5.30;;
37241;SDS011;23135;51.078;12.108;2023-04-06T03:59:52;7.45;;;5.60;;
37241;SDS011;23135;51.078;12.108;2023-04-06T04:02:17;9.07;;;4.97;;
37241;SDS011;23135;51.078;12.108;2023-04-06T04:04:43;10.43;;;5.75;;
37241;SDS011;23135;51.078;12.108;2023-04-06T04:07:08;13.00;;;5.93;;
37241;SDS011;23135;51.078;12.108;2023-04-06T04:09:34;10.93;;;6.43;;
37241;SDS011;23135;51.078;12.108;2023-04-06T04:12:00;9.82;;;5.75;;
37241;SDS011;23135;51.078;12.108;2023-04-06T04:14:25;10.65;;;5.68;;
37241;SDS011;23135;51.078;12.108;2023-04-06T04:16:51;9.60;;;5.68;;
37241;SDS011;23135;51.078;12.108;2023-04-06T04:19:17;12.00;;;6.13;;
37241;SDS011;23135;51.078;12.108;2023-04-06T04:21:43;9.82;;;5.35;;
37241;SDS011;23135;51.078;12.108;2023-04-06T04:24:10;9.88;;;5.70;;
37241;SDS011;23135;51.078;12.108;2023-04-06T04:26:35;7.65;;;4.80;;
37241;SDS011;23135;51.078;12.108;2023-04-06T04:29:01;9.30;;;5.13;;
37241;SDS011;23135;51.078;12.108;2023-04-06T04:31:26;11.18;;;4.30;;
37241;SDS011;23135;51.078;12.108;2023-04-06T04:33:52;6.25;;;4.20;;
37241;SDS011;23135;51.078;12.108;2023-04-06T04:36:17;9.23;;;5.03;;
37241;SDS011;23135;51.078;12.108;2023-04-06T04:38:43;12.57;;;4.93;;
37241;SDS011;23135;51.078;12.108;2023-04-06T04:41:08;6.47;;;4.13;;
37241;SDS011;23135;51.078;12.108;2023-04-06T04:43:34;6.00;;;3.85;;
37241;SDS011;23135;51.078;12.108;2023-04-06T04:46:00;8.90;;;3.95;;
37241;SDS011;23135;51.078;12.108;2023-04-06T04:48:25;7.22;;;4.45;;
37241;SDS011;23135;51.078;12.108;2023-04-06T04:50:51;9.23;;;5.07;;
37241;SDS011;23135;51.078;12.108;2023-04-06T04:53:17;23.20;;;12.50;;
37241;SDS011;23135;51.078;12.108;2023-04-06T04:55:42;182.25;;;87.80;;
37241;SDS011;23135;51.078;12.108;2023-04-06T04:58:08;323.10;;;150.85;;
37241;SDS011;23135;51.078;12.108;2023-04-06T05:00:34;106.93;;;51.05;;
37241;SDS011;23135;51.078;12.108;2023-04-06T05:03:00;89.60;;;47.60;;
37241;SDS011;23135;51.078;12.108;2023-04-06T05:05:25;33.75;;;16.13;;
37241;SDS011;23135;51.078;12.108;2023-04-06T05:07:51;23.17;;;11.40;;
37241;SDS011;23135;51.078;12.108;2023-04-06T05:10:16;15.88;;;8.43;;
37241;SDS011;23135;51.078;12.108;2023-04-06T05:12:42;13.27;;;8.82;;
37241;SDS011;23135;51.078;12.108;2023-04-06T05:15:08;7.95;;;4.82;;
37241;SDS011;23135;51.078;12.108;2023-04-06T05:17:34;7.05;;;3.88;;
37241;SDS011;23135;51.078;12.108;2023-04-06T05:20:00;8.68;;;5.47;;
37241;SDS011;23135;51.078;12.108;2023-04-06T05:22:25;46.03;;;28.05;;
37241;SDS011;23135;51.078;12.108;2023-04-06T05:24:51;43.38;;;30.83;;
37241;SDS011;23135;51.078;12.108;2023-04-06T05:27:16;20.00;;;14.27;;
37241;SDS011;23135;51.078;12.108;2023-04-06T05:29:42;9.00;;;5.45;;
37241;SDS011;23135;51.078;12.108;2023-04-06T05:32:08;6.95;;;4.43;;
37241;SDS011;23135;51.078;12.108;2023-04-06T05:34:33;10.20;;;4.28;;
37241;SDS011;23135;51.078;12.108;2023-04-06T05:36:59;11.07;;;4.63;;
37241;SDS011;23135;51.078;12.108;2023-04-06T05:39:24;6.72;;;3.55;;
37241;SDS011;23135;51.078;12.108;2023-04-06T05:41:50;12.02;;;4.55;;
37241;SDS011;23135;51.078;12.108;2023-04-06T05:44:16;12.98;;;3.40;;
37241;SDS011;23135;51.078;12.108;2023-04-06T05:46:41;9.75;;;3.47;;
37241;SDS011;23135;51.078;12.108;2023-04-06T05:49:07;7.50;;;3.63;;
37241;SDS011;23135;51.078;12.108;2023-04-06T05:51:32;5.18;;;3.58;;
37241;SDS011;23135;51.078;12.108;2023-04-06T05:53:58;6.20;;;3.25;;
37241;SDS011;23135;51.078;12.108;2023-04-06T05:56:24;7.25;;;4.07;;
37241;SDS011;23135;51.078;12.108;2023-04-06T05:58:50;5.82;;;2.70;;
37241;SDS011;23135;51.078;12.108;2023-04-06T06:01:15;8.10;;;4.15;;
37241;SDS011;23135;51.078;12.108;2023-04-06T06:03:41;16.75;;;4.07;;
37241;SDS011;23135;51.078;12.108;2023-04-06T06:06:07;7.90;;;2.75;;
37241;SDS011;23135;51.078;12.108;2023-04-06T06:08:32;6.13;;;3.30;;
37241;SDS011;23135;51.078;12.108;2023-04-06T06:10:58;5.72;;;2.42;;
37241;SDS011;23135;51.078;12.108;2023-04-06T06:13:24;7.65;;;3.30;;
37241;SDS011;23135;51.078;12.108;2023-04-06T06:15:49;5.07;;;2.95;;
37241;SDS011;23135;51.078;12.108;2023-04-06T06:18:15;7.93;;;4.30;;
37241;SDS011;23135;51.078;12.108;2023-04-06T06:20:41;23.67;;;10.18;;
37241;SDS011;23135;51.078;12.108;2023-04-06T06:23:07;10.40;;;7.30;;
37241;SDS011;23135;51.078;12.108;2023-04-06T06:25:32;16.83;;;12.48;;
37241;SDS011;23135;51.078;12.108;2023-04-06T06:27:58;14.15;;;6.07;;
37241;SDS011;23135;51.078;12.108;2023-04-06T06:30:24;11.52;;;5.32;;
37241;SDS011;23135;51.078;12.108;2023-04-06T06:32:51;10.35;;;3.97;;
37241;SDS011;23135;51.078;12.108;2023-04-06T06:35:16;7.78;;;3.65;;
37241;SDS011;23135;51.078;12.108;2023-04-06T06:37:42;7.03;;;4.80;;
37241;SDS011;23135;51.078;12.108;2023-04-06T06:40:10;7.45;;;3.80;;
37241;SDS011;23135;51.078;12.108;2023-04-06T06:42:38;13.55;;;2.75;;
37241;SDS011;23135;51.078;12.108;2023-04-06T06:45:04;10.30;;;4.10;;
37241;SDS011;23135;51.078;12.108;2023-04-06T06:47:30;8.88;;;3.97;;
37241;SDS011;23135;51.078;12.108;2023-04-06T06:49:56;5.40;;;3.10;;
37241;SDS011;23135;51.078;12.108;2023-04-06T06:52:21;7.93;;;3.38;;
37241;SDS011;23135;51.078;12.108;2023-04-06T06:54:48;4.95;;;2.60;;
37241;SDS011;23135;51.078;12.108;2023-04-06T06:57:14;9.30;;;4.03;;
37241;SDS011;23135;51.078;12.108;2023-04-06T06:59:40;10.27;;;3.53;;
37241;SDS011;23135;51.078;12.108;2023-04-06T07:02:05;8.50;;;4.05;;
37241;SDS011;23135;51.078;12.108;2023-04-06T07:04:31;6.85;;;2.05;;
37241;SDS011;23135;51.078;12.108;2023-04-06T07:06:56;7.05;;;4.90;;
37241;SDS011;23135;51.078;12.108;2023-04-06T07:09:22;22.92;;;10.07;;
37241;SDS011;23135;51.078;12.108;2023-04-06T07:11:48;6.90;;;4.05;;
37241;SDS011;23135;51.078;12.108;2023-04-06T07:14:14;10.45;;;4.50;;
37241;SDS011;23135;51.078;12.108;2023-04-06T07:16:40;6.20;;;3.40;;
37241;SDS011;23135;51.078;12.108;2023-04-06T07:19:06;14.75;;;6.72;;
37241;SDS011;23135;51.078;12.108;2023-04-06T07:21:33;9.35;;;2.90;;
37241;SDS011;23135;51.078;12.108;2023-04-06T07:23:58;8.95;;;2.42;;
37241;SDS011;23135;51.078;12.108;2023-04-06T07:26:24;4.60;;;2.70;;
37241;SDS011;23135;51.078;12.108;2023-04-06T07:28:49;6.00;;;2.28;;
37241;SDS011;23135;51.078;12.108;2023-04-06T07:31:15;3.63;;;1.75;;
37241;SDS011;23135;51.078;12.108;2023-04-06T07:33:41;7.00;;;2.42;;
37241;SDS011;23135;51.078;12.108;2023-04-06T07:36:06;5.75;;;1.67;;
37241;SDS011;23135;51.078;12.108;2023-04-06T07:38:32;7.63;;;2.80;;
37241;SDS011;23135;51.078;12.108;2023-04-06T07:40:57;4.35;;;1.63;;
37241;SDS011;23135;51.078;12.108;2023-04-06T07:43:23;6.78;;;2.25;;
37241;SDS011;23135;51.078;12.108;2023-04-06T07:45:49;4.32;;;1.80;;
37241;SDS011;23135;51.078;12.108;2023-04-06T07:48:14;3.60;;;2.33;;
37241;SDS011;23135;51.078;12.108;2023-04-06T07:50:40;3.92;;;1.63;;
37241;SDS011;23135;51.078;12.108;2023-04-06T07:53:05;3.70;;;2.42;;
37241;SDS011;23135;51.078;12.108;2023-04-06T07:55:31;6.80;;;2.25;;
37241;SDS011;23135;51.078;12.108;2023-04-06T07:57:56;3.85;;;2.40;;
37241;SDS011;23135;51.078;12.108;2023-04-06T08:00:22;5.18;;;2.28;;
37241;SDS011;23135;51.078;12.108;2023-04-06T08:02:48;10.00;;;2.53;;
37241;SDS011;23135;51.078;12.108;2023-04-06T08:05:13;2.40;;;2.10;;
37241;SDS011;23135;51.078;12.108;2023-04-06T08:07:39;5.57;;;2.45;;
37241;SDS011;23135;51.078;12.108;2023-04-06T08:10:05;3.95;;;2.17;;
37241;SDS011;23135;51.078;12.108;2023-04-06T08:12:31;6.13;;;2.47;;
37241;SDS011;23135;51.078;12.108;2023-04-06T08:14:57;5.88;;;1.80;;
37241;SDS011;23135;51.078;12.108;2023-04-06T08:17:23;3.47;;;1.58;;
37241;SDS011;23135;51.078;12.108;2023-04-06T08:19:48;5.93;;;2.05;;
37241;SDS011;23135;51.078;12.108;2023-04-06T08:22:14;9.60;;;2.90;;
37241;SDS011;23135;51.078;12.108;2023-04-06T08:24:40;5.45;;;3.60;;
37241;SDS011;23135;51.078;12.108;2023-04-06T08:27:05;4.03;;;2.03;;
37241;SDS011;23135;51.078;12.108;2023-04-06T08:29:31;10.35;;;2.63;;
37241;SDS011;23135;51.078;12.108;2023-04-06T08:31:56;7.13;;;3.10;;
37241;SDS011;23135;51.078;12.108;2023-04-06T08:34:22;4.35;;;2.33;;
37241;SDS011;23135;51.078;12.108;2023-04-06T08:36:48;6.40;;;3.42;;
37241;SDS011;23135;51.078;12.108;2023-04-06T08:39:15;3.72;;;2.10;;
37241;SDS011;23135;51.078;12.108;2023-04-06T08:41:43;6.13;;;2.83;;
37241;SDS011;23135;51.078;12.108;2023-04-06T08:44:09;5.40;;;2.33;;
37241;SDS011;23135;51.078;12.108;2023-04-06T08:46:36;7.65;;;3.28;;
37241;SDS011;23135;51.078;12.108;2023-04-06T08:49:02;6.72;;;2.78;;
37241;SDS011;23135;51.078;12.108;2023-04-06T08:51:31;7.75;;;4.25;;
37241;SDS011;23135;51.078;12.108;2023-04-06T08:53:57;11.63;;;4.78;;
37241;SDS011;23135;51.078;12.108;2023-04-06T08:56:24;3.28;;;2.58;;
37241;SDS011;23135;51.078;12.108;2023-04-06T08:58:52;5.05;;;2.42;;
37241;SDS011;23135;51.078;12.108;2023-04-06T09:01:23;6.88;;;1.73;;
37241;SDS011;23135;51.078;12.108;2023-04-06T09:03:54;4.60;;;2.05;;
37241;SDS011;23135;51.078;12.108;2023-04-06T09:06:22;5.50;;;2.55;;
37241;SDS011;23135;51.078;12.108;2023-04-06T09:08:48;4.60;;;2.40;;
37241;SDS011;23135;51.078;12.108;2023-04-06T09:11:14;2.88;;;1.90;;
37241;SDS011;23135;51.078;12.108;2023-04-06T09:13:47;3.15;;;2.13;;
37241;SDS011;23135;51.078;12.108;2023-04-06T09:16:14;8.02;;;2.30;;
37241;SDS011;23135;51.078;12.108;2023-04-06T09:18:40;2.17;;;1.60;;
37241;SDS011;23135;51.078;12.108;2023-04-06T09:21:06;5.35;;;1.85;;
37241;SDS011;23135;51.078;12.108;2023-04-06T09:23:32;4.47;;;1.40;;
37241;SDS011;23135;51.078;12.108;2023-04-06T09:28:41;4.25;;;1.50;;
37241;SDS011;23135;51.078;12.108;2023-04-06T09:31:16;16.55;;;1.73;;
37241;SDS011;23135;51.078;12.108;2023-04-06T09:33:46;2.38;;;1.10;;
37241;SDS011;23135;51.078;12.108;2023-04-06T09:36:12;1.88;;;1.33;;
37241;SDS011;23135;51.078;12.108;2023-04-06T09:38:51;1.92;;;1.75;;
37241;SDS011;23135;51.078;12.108;2023-04-06T09:41:22;4.40;;;1.58;;
37241;SDS011;23135;51.078;12.108;2023-04-06T09:43:50;2.15;;;1.58;;
37241;SDS011;23135;51.078;12.108;2023-04-06T09:46:17;4.05;;;1.33;;
37241;SDS011;23135;51.078;12.108;2023-04-06T09:48:46;2.60;;;1.75;;
37241;SDS011;23135;51.078;12.108;2023-04-06T09:51:12;2.40;;;1.73;;
37241;SDS011;23135;51.078;12.108;2023-04-06T09:53:40;5.22;;;2.10;;
37241;SDS011;23135;51.078;12.108;2023-04-06T09:56:11;3.00;;;1.65;;
37241;SDS011;23135;51.078;12.108;2023-04-06T09:58:41;2.40;;;1.88;;
37241;SDS011;23135;51.078;12.108;2023-04-06T10:01:12;2.92;;;1.63;;
37241;SDS011;23135;51.078;12.108;2023-04-06T10:03:52;6.57;;;2.00;;
37241;SDS011;23135;51.078;12.108;2023-04-06T10:08:51;5.20;;;1.25;;
37241;SDS011;23135;51.078;12.108;2023-04-06T10:11:20;4.63;;;1.92;;
37241;SDS011;23135;51.078;12.108;2023-04-06T10:13:46;5.22;;;1.65;;
37241;SDS011;23135;51.078;12.108;2023-04-06T10:16:14;2.95;;;1.48;;
37241;SDS011;23135;51.078;12.108;2023-04-06T10:18:41;2.30;;;1.77;;
37241;SDS011;23135;51.078;12.108;2023-04-06T10:21:11;2.50;;;1.58;;
37241;SDS011;23135;51.078;12.108;2023-04-06T10:26:38;3.28;;;1.70;;
37241;SDS011;23135;51.078;12.108;2023-04-06T10:29:05;2.15;;;1.30;;
37241;SDS011;23135;51.078;12.108;2023-04-06T10:31:31;2.30;;;1.65;;
37241;SDS011;23135;51.078;12.108;2023-04-06T10:33:57;2.85;;;2.13;;
37241;SDS011;23135;51.078;12.108;2023-04-06T10:36:27;1.92;;;1.60;;
37241;SDS011;23135;51.078;12.108;2023-04-06T10:38:58;4.18;;;1.90;;
37241;SDS011;23135;51.078;12.108;2023-04-06T10:41:33;3.33;;;2.10;;
37241;SDS011;23135;51.078;12.108;2023-04-06T10:44:22;3.85;;;1.77;;
37241;SDS011;23135;51.078;12.108;2023-04-06T10:46:55;2.22;;;1.42;;
37241;SDS011;23135;51.078;12.108;2023-04-06T10:49:22;6.32;;;1.48;;
37241;SDS011;23135;51.078;12.108;2023-04-06T10:51:53;3.65;;;1.77;;
37241;SDS011;23135;51.078;12.108;2023-04-06T10:54:21;2.53;;;1.77;;
37241;SDS011;23135;51.078;12.108;2023-04-06T10:56:48;2.92;;;1.08;;
37241;SDS011;23135;51.078;12.108;2023-04-06T10:59:18;5.03;;;1.83;;
37241;SDS011;23135;51.078;12.108;2023-04-06T11:01:45;3.75;;;1.88;;
37241;SDS011;23135;51.078;12.108;2023-04-06T11:04:15;3.25;;;1.88;;
37241;SDS011;23135;51.078;12.108;2023-04-06T11:06:46;2.00;;;1.38;;
37241;SDS011;23135;51.078;12.108;2023-04-06T11:09:22;2.22;;;1.35;;
37241;SDS011;23135;51.078;12.108;2023-04-06T11:11:52;3.03;;;2.05;;
37241;SDS011;23135;51.078;12.108;2023-04-06T11:14:18;3.05;;;1.80;;
37241;SDS011;23135;51.078;12.108;2023-04-06T11:16:45;1.40;;;1.20;;
37241;SDS011;23135;51.078;12.108;2023-04-06T11:19:13;1.52;;;1.00;;
37241;SDS011;23135;51.078;12.108;2023-04-06T11:21:45;3.22;;;2.08;;
37241;SDS011;23135;51.078;12.108;2023-04-06T11:24:20;5.97;;;2.10;;
37241;SDS011;23135;51.078;12.108;2023-04-06T11:26:57;6.13;;;2.25;;
37241;SDS011;23135;51.078;12.108;2023-04-06T11:31:51;2.63;;;1.45;;
37241;SDS011;23135;51.078;12.108;2023-04-06T11:34:19;4.55;;;1.73;;
37241;SDS011;23135;51.078;12.108;2023-04-06T11:36:46;2.35;;;1.63;;
37241;SDS011;23135;51.078;12.108;2023-04-06T11:39:13;3.92;;;2.10;;
37241;SDS011;23135;51.078;12.108;2023-04-06T11:41:47;2.63;;;1.63;;
37241;SDS011;23135;51.078;12.108;2023-04-06T11:44:26;2.47;;;2.25;;
37241;SDS011;23135;51.078;12.108;2023-04-06T11:47:06;2.78;;;2.30;;
37241;SDS011;23135;51.078;12.108;2023-04-06T11:49:33;1.50;;;1.33;;
37241;SDS011;23135;51.078;12.108;2023-04-06T11:52:02;2.97;;;2.08;;
37241;SDS011;23135;51.078;12.108;2023-04-06T11:54:35;6.85;;;2.30;;
37241;SDS011;23135;51.078;12.108;2023-04-06T11:57:03;2.10;;;1.90;;
37241;SDS011;23135;51.078;12.108;2023-04-06T11:59:30;2.95;;;1.88;;
37241;SDS011;23135;51.078;12.108;2023-04-06T12:01:56;6.03;;;2.72;;
37241;SDS011;23135;51.078;12.108;2023-04-06T12:04:22;2.95;;;1.75;;
37241;SDS011;23135;51.078;12.108;2023-04-06T12:06:48;2.35;;;1.60;;
37241;SDS011;23135;51.078;12.108;2023-04-06T12:09:14;3.05;;;1.65;;
37241;SDS011;23135;51.078;12.108;2023-04-06T12:11:40;3.85;;;2.05;;
37241;SDS011;23135;51.078;12.108;2023-04-06T12:14:06;6.50;;;2.10;;
37241;SDS011;23135;51.078;12.108;2023-04-06T12:16:32;2.95;;;2.47;;
37241;SDS011;23135;51.078;12.108;2023-04-06T12:18:58;4.90;;;1.77;;
37241;SDS011;23135;51.078;12.108;2023-04-06T12:21:24;2.95;;;1.95;;
37241;SDS011;23135;51.078;12.108;2023-04-06T12:23:51;3.15;;;1.63;;
37241;SDS011;23135;51.078;12.108;2023-04-06T12:26:17;4.75;;;2.45;;
37241;SDS011;23135;51.078;12.108;2023-04-06T12:28:42;2.85;;;2.20;;
37241;SDS011;23135;51.078;12.108;2023-04-06T12:31:14;4.40;;;1.67;;
37241;SDS011;23135;51.078;12.108;2023-04-06T12:33:40;1.97;;;1.77;;
37241;SDS011;23135;51.078;12.108;2023-04-06T12:36:11;5.35;;;2.05;;
37241;SDS011;23135;51.078;12.108;2023-04-06T12:38:38;2.17;;;1.90;;
37241;SDS011;23135;51.078;12.108;2023-04-06T12:41:04;3.95;;;2.47;;
37241;SDS011;23135;51.078;12.108;2023-04-06T12:43:30;1.63;;;1.42;;
37241;SDS011;23135;51.078;12.108;2023-04-06T12:45:56;4.85;;;2.08;;
37241;SDS011;23135;51.078;12.108;2023-04-06T12:48:21;3.67;;;1.80;;
37241;SDS011;23135;51.078;12.108;2023-04-06T12:50:53;3.20;;;2.03;;
37241;SDS011;23135;51.078;12.108;2023-04-06T12:53:20;3.03;;;2.00;;
37241;SDS011;23135;51.078;12.108;2023-04-06T12:55:46;3.65;;;2.08;;
37241;SDS011;23135;51.078;12.108;2023-04-06T12:58:11;3.00;;;2.33;;
37241;SDS011;23135;51.078;12.108;2023-04-06T13:00:37;2.80;;;2.20;;
37241;SDS011;23135;51.078;12.108;2023-04-06T13:03:02;2.67;;;2.10;;
37241;SDS011;23135;51.078;12.108;2023-04-06T13:05:28;3.67;;;2.22;;
37241;SDS011;23135;51.078;12.108;2023-04-06T13:07:53;2.90;;;1.90;;
37241;SDS011;23135;51.078;12.108;2023-04-06T13:10:19;3.30;;;2.15;;
37241;SDS011;23135;51.078;12.108;2023-04-06T13:12:44;3.88;;;1.77;;
37241;SDS011;23135;51.078;12.108;2023-04-06T13:15:10;3.55;;;2.10;;
37241;SDS011;23135;51.078;12.108;2023-04-06T13:17:36;2.00;;;1.90;;
37241;SDS011;23135;51.078;12.108;2023-04-06T13:20:01;2.90;;;1.60;;
37241;SDS011;23135;51.078;12.108;2023-04-06T13:22:28;2.45;;;1.60;;
37241;SDS011;23135;51.078;12.108;2023-04-06T13:24:54;5.07;;;2.50;;
37241;SDS011;23135;51.078;12.108;2023-04-06T13:27:19;2.78;;;1.55;;
37241;SDS011;23135;51.078;12.108;2023-04-06T13:29:45;10.50;;;2.13;;
37241;SDS011;23135;51.078;12.108;2023-04-06T13:32:11;3.20;;;1.83;;
37241;SDS011;23135;51.078;12.108;2023-04-06T13:34:36;2.92;;;2.00;;
37241;SDS011;23135;51.078;12.108;2023-04-06T13:37:02;3.45;;;2.28;;
37241;SDS011;23135;51.078;12.108;2023-04-06T13:39:28;2.42;;;2.15;;
37241;SDS011;23135;51.078;12.108;2023-04-06T13:41:54;2.88;;;2.60;;
37241;SDS011;23135;51.078;12.108;2023-04-06T13:44:21;5.20;;;2.28;;
37241;SDS011;23135;51.078;12.108;2023-04-06T13:46:46;4.22;;;2.20;;
37241;SDS011;23135;51.078;12.108;2023-04-06T13:49:12;7.95;;;2.33;;
37241;SDS011;23135;51.078;12.108;2023-04-06T13:51:38;4.15;;;2.53;;
37241;SDS011;23135;51.078;12.108;2023-04-06T13:54:04;5.07;;;2.17;;
37241;SDS011;23135;51.078;12.108;2023-04-06T13:56:30;3.45;;;2.20;;
37241;SDS011;23135;51.078;12.108;2023-04-06T13:58:55;2.45;;;2.22;;
37241;SDS011;23135;51.078;12.108;2023-04-06T14:01:21;2.58;;;2.38;;
37241;SDS011;23135;51.078;12.108;2023-04-06T14:03:50;2.97;;;2.28;;
37241;SDS011;23135;51.078;12.108;2023-04-06T14:06:16;2.28;;;2.08;;
37241;SDS011;23135;51.078;12.108;2023-04-06T14:08:41;2.25;;;2.10;;
37241;SDS011;23135;51.078;12.108;2023-04-06T14:11:10;3.88;;;2.28;;
37241;SDS011;23135;51.078;12.108;2023-04-06T14:13:38;2.50;;;2.30;;
37241;SDS011;23135;51.078;12.108;2023-04-06T14:16:04;3.58;;;2.75;;
37241;SDS011;23135;51.078;12.108;2023-04-06T14:18:30;3.70;;;2.05;;
37241;SDS011;23135;51.078;12.108;2023-04-06T14:20:56;2.22;;;1.75;;
37241;SDS011;23135;51.078;12.108;2023-04-06T14:23:23;2.30;;;2.10;;
37241;SDS011;23135;51.078;12.108;2023-04-06T14:25:51;1.92;;;1.83;;
37241;SDS011;23135;51.078;12.108;2023-04-06T14:28:25;3.28;;;2.10;;
37241;SDS011;23135;51.078;12.108;2023-04-06T14:30:51;1.98;;;1.77;;
37241;SDS011;23135;51.078;12.108;2023-04-06T14:33:17;3.08;;;2.00;;
37241;SDS011;23135;51.078;12.108;2023-04-06T14:35:42;2.67;;;1.75;;
37241;SDS011;23135;51.078;12.108;2023-04-06T14:38:08;2.85;;;2.50;;